sensor_id;sensor_type;location;lat;lon;timestamp;P1;durP1;ratioP1;P2;durP2;ratioP2
17564;SDS011;62994;52.126;5.596;2024-02-26T00:00:39;3.63;;;3.42;;
17564;SDS011;62994;52.126;5.596;2024-02-26T00:03:07;4.07;;;3.78;;
17564;SDS011;62994;52.126;5.596;2024-02-26T00:05:34;4.22;;;3.95;;
17564;SDS011;62994;52.126;5.596;2024-02-26T00:08:03;3.97;;;3.78;;
17564;SDS011;62994;52.126;5.596;2024-02-26T00:10:31;4.43;;;4.13;;
17564;SDS011;62994;52.126;5.596;2024-02-26T00:12:57;3.70;;;3.50;;
17564;SDS011;62994;52.126;5.596;2024-02-26T00:15:24;4.35;;;4.15;;
17564;SDS011;62994;52.126;5.596;2024-02-26T00:17:54;3.83;;;3.63;;
17564;SDS011;62994;52.126;5.596;2024-02-26T00:20:21;4.50;;;4.10;;
17564;SDS011;62994;52.126;5.596;2024-02-26T00:22:48;4.60;;;4.20;;
17564;SDS011;62994;52.126;5.596;2024-02-26T00:25:15;4.30;;;3.92;;
17564;SDS011;62994;52.126;5.596;2024-02-26T00:27:42;4.85;;;4.55;;
17564;SDS011;62994;52.126;5.596;2024-02-26T00:30:09;4.60;;;4.25;;
17564;SDS011;62994;52.126;5.596;2024-02-26T00:32:37;4.78;;;4.28;;
17564;SDS011;62994;52.126;5.596;2024-02-26T00:35:06;5.20;;;4.78;;
17564;SDS011;62994;52.126;5.596;2024-02-26T00:37:34;4.60;;;4.40;;
17564;SDS011;62994;52.126;5.596;2024-02-26T00:40:01;5.03;;;4.25;;
17564;SDS011;62994;52.126;5.596;2024-02-26T00:42:33;4.60;;;4.40;;
17564;SDS011;62994;52.126;5.596;2024-02-26T00:45:00;5.22;;;4.82;;
17564;SDS011;62994;52.126;5.596;2024-02-26T00:47:28;4.97;;;4.68;;
17564;SDS011;62994;52.126;5.596;2024-02-26T00:49:59;4.80;;;4.60;;
17564;SDS011;62994;52.126;5.596;2024-02-26T00:52:27;4.95;;;4.65;;
17564;SDS011;62994;52.126;5.596;2024-02-26T00:54:54;5.40;;;4.40;;
17564;SDS011;62994;52.126;5.596;2024-02-26T00:57:21;15.85;;;4.50;;
17564;SDS011;62994;52.126;5.596;2024-02-26T00:59:48;4.85;;;4.55;;
17564;SDS011;62994;52.126;5.596;2024-02-26T01:02:15;5.35;;;5.05;;
17564;SDS011;62994;52.126;5.596;2024-02-26T01:04:42;5.95;;;4.90;;
17564;SDS011;62994;52.126;5.596;2024-02-26T01:07:09;5.22;;;4.90;;
17564;SDS011;62994;52.126;5.596;2024-02-26T01:09:38;5.70;;;5.30;;
17564;SDS011;62994;52.126;5.596;2024-02-26T01:12:05;5.32;;;4.97;;
17564;SDS011;62994;52.126;5.596;2024-02-26T01:14:32;5.72;;;5.40;;
17564;SDS011;62994;52.126;5.596;2024-02-26T01:16:59;5.72;;;5.20;;
17564;SDS011;62994;52.126;5.596;2024-02-26T01:19:30;5.03;;;4.75;;
17564;SDS011;62994;52.126;5.596;2024-02-26T01:21:57;4.97;;;4.68;;
17564;SDS011;62994;52.126;5.596;2024-02-26T01:24:24;5.05;;;4.75;;
17564;SDS011;62994;52.126;5.596;2024-02-26T01:26:52;5.80;;;5.40;;
17564;SDS011;62994;52.126;5.596;2024-02-26T01:29:19;5.47;;;5.18;;
17564;SDS011;62994;52.126;5.596;2024-02-26T01:31:46;5.63;;;5.32;;
17564;SDS011;62994;52.126;5.596;2024-02-26T01:34:13;5.35;;;4.97;;
17564;SDS011;62994;52.126;5.596;2024-02-26T01:36:40;5.07;;;4.70;;
17564;SDS011;62994;52.126;5.596;2024-02-26T01:39:07;5.05;;;4.85;;
17564;SDS011;62994;52.126;5.596;2024-02-26T01:41:36;7.05;;;5.25;;
17564;SDS011;62994;52.126;5.596;2024-02-26T01:44:05;5.68;;;5.38;;
17564;SDS011;62994;52.126;5.596;2024-02-26T01:46:32;6.07;;;5.68;;
17564;SDS011;62994;52.126;5.596;2024-02-26T01:49:02;5.53;;;5.22;;
17564;SDS011;62994;52.126;5.596;2024-02-26T01:51:29;5.50;;;5.20;;
17564;SDS011;62994;52.126;5.596;2024-02-26T01:54:00;5.55;;;5.20;;
17564;SDS011;62994;52.126;5.596;2024-02-26T01:56:29;5.40;;;5.10;;
17564;SDS011;62994;52.126;5.596;2024-02-26T01:58:57;6.00;;;5.40;;
17564;SDS011;62994;52.126;5.596;2024-02-26T02:01:26;6.13;;;5.82;;
17564;SDS011;62994;52.126;5.596;2024-02-26T02:03:58;5.88;;;5.45;;
17564;SDS011;62994;52.126;5.596;2024-02-26T02:06:26;5.45;;;5.13;;
17564;SDS011;62994;52.126;5.596;2024-02-26T02:08:54;6.30;;;5.90;;
17564;SDS011;62994;52.126;5.596;2024-02-26T02:11:21;6.03;;;5.72;;
17564;SDS011;62994;52.126;5.596;2024-02-26T02:13:48;5.85;;;5.53;;
17564;SDS011;62994;52.126;5.596;2024-02-26T02:16:15;5.88;;;5.47;;
17564;SDS011;62994;52.126;5.596;2024-02-26T02:18:43;5.72;;;5.32;;
17564;SDS011;62994;52.126;5.596;2024-02-26T02:21:12;6.38;;;5.88;;
17564;SDS011;62994;52.126;5.596;2024-02-26T02:23:39;5.88;;;5.53;;
17564;SDS011;62994;52.126;5.596;2024-02-26T02:26:11;6.32;;;5.82;;
17564;SDS011;62994;52.126;5.596;2024-02-26T02:28:38;9.40;;;6.38;;
17564;SDS011;62994;52.126;5.596;2024-02-26T02:31:06;6.45;;;5.97;;
17564;SDS011;62994;52.126;5.596;2024-02-26T02:33:34;5.80;;;5.50;;
17564;SDS011;62994;52.126;5.596;2024-02-26T02:36:01;5.90;;;5.60;;
17564;SDS011;62994;52.126;5.596;2024-02-26T02:38:29;5.90;;;5.60;;
17564;SDS011;62994;52.126;5.596;2024-02-26T02:40:56;6.13;;;5.57;;
17564;SDS011;62994;52.126;5.596;2024-02-26T02:43:23;5.88;;;5.47;;
17564;SDS011;62994;52.126;5.596;2024-02-26T02:45:51;6.45;;;6.03;;
17564;SDS011;62994;52.126;5.596;2024-02-26T02:48:17;5.97;;;5.57;;
17564;SDS011;62994;52.126;5.596;2024-02-26T02:50:44;5.82;;;5.38;;
17564;SDS011;62994;52.126;5.596;2024-02-26T02:53:11;6.45;;;5.43;;
17564;SDS011;62994;52.126;5.596;2024-02-26T02:55:40;5.45;;;5.13;;
17564;SDS011;62994;52.126;5.596;2024-02-26T02:58:07;5.78;;;5.38;;
17564;SDS011;62994;52.126;5.596;2024-02-26T03:00:33;5.65;;;5.28;;
17564;SDS011;62994;52.126;5.596;2024-02-26T03:03:00;6.18;;;5.72;;
17564;SDS011;62994;52.126;5.596;2024-02-26T03:05:27;5.88;;;5.50;;
17564;SDS011;62994;52.126;5.596;2024-02-26T03:07:54;6.63;;;5.80;;
17564;SDS011;62994;52.126;5.596;2024-02-26T03:10:20;5.95;;;5.50;;
17564;SDS011;62994;52.126;5.596;2024-02-26T03:12:49;6.60;;;6.10;;
17564;SDS011;62994;52.126;5.596;2024-02-26T03:15:16;7.95;;;5.53;;
17564;SDS011;62994;52.126;5.596;2024-02-26T03:17:43;5.88;;;5.50;;
17564;SDS011;62994;52.126;5.596;2024-02-26T03:20:10;5.65;;;5.25;;
17564;SDS011;62994;52.126;5.596;2024-02-26T03:22:38;6.13;;;5.60;;
17564;SDS011;62994;52.126;5.596;2024-02-26T03:25:05;5.63;;;5.18;;
17564;SDS011;62994;52.126;5.596;2024-02-26T03:27:33;5.70;;;5.40;;
17564;SDS011;62994;52.126;5.596;2024-02-26T03:30:01;6.13;;;5.72;;
17564;SDS011;62994;52.126;5.596;2024-02-26T03:32:28;6.53;;;6.13;;
17564;SDS011;62994;52.126;5.596;2024-02-26T03:34:55;5.90;;;5.60;;
17564;SDS011;62994;52.126;5.596;2024-02-26T03:37:23;6.18;;;5.68;;
17564;SDS011;62994;52.126;5.596;2024-02-26T03:39:50;6.28;;;5.88;;
17564;SDS011;62994;52.126;5.596;2024-02-26T03:42:16;6.97;;;6.38;;
17564;SDS011;62994;52.126;5.596;2024-02-26T03:44:44;7.55;;;6.70;;
17564;SDS011;62994;52.126;5.596;2024-02-26T03:47:12;7.07;;;6.57;;
17564;SDS011;62994;52.126;5.596;2024-02-26T03:49:39;7.32;;;6.63;;
17564;SDS011;62994;52.126;5.596;2024-02-26T03:52:06;6.45;;;6.05;;
17564;SDS011;62994;52.126;5.596;2024-02-26T03:54:33;6.68;;;6.13;;
17564;SDS011;62994;52.126;5.596;2024-02-26T03:57:00;6.45;;;5.97;;
17564;SDS011;62994;52.126;5.596;2024-02-26T03:59:27;7.78;;;7.18;;
17564;SDS011;62994;52.126;5.596;2024-02-26T04:01:54;6.82;;;6.22;;
17564;SDS011;62994;52.126;5.596;2024-02-26T04:04:22;6.80;;;6.30;;
17564;SDS011;62994;52.126;5.596;2024-02-26T04:06:49;7.13;;;6.57;;
17564;SDS011;62994;52.126;5.596;2024-02-26T04:09:16;7.07;;;6.57;;
17564;SDS011;62994;52.126;5.596;2024-02-26T04:11:43;7.20;;;6.60;;
17564;SDS011;62994;52.126;5.596;2024-02-26T04:14:10;7.72;;;7.15;;
17564;SDS011;62994;52.126;5.596;2024-02-26T04:16:37;6.78;;;6.30;;
17564;SDS011;62994;52.126;5.596;2024-02-26T04:19:04;6.60;;;6.20;;
17564;SDS011;62994;52.126;5.596;2024-02-26T04:21:33;6.82;;;6.32;;
17564;SDS011;62994;52.126;5.596;2024-02-26T04:24:00;7.60;;;6.95;;
17564;SDS011;62994;52.126;5.596;2024-02-26T04:26:27;6.85;;;6.38;;
17564;SDS011;62994;52.126;5.596;2024-02-26T04:28:54;7.07;;;6.50;;
17564;SDS011;62994;52.126;5.596;2024-02-26T04:31:21;7.47;;;6.88;;
17564;SDS011;62994;52.126;5.596;2024-02-26T04:33:48;7.45;;;6.90;;
17564;SDS011;62994;52.126;5.596;2024-02-26T04:36:15;7.32;;;6.68;;
17564;SDS011;62994;52.126;5.596;2024-02-26T04:38:43;7.13;;;6.60;;
17564;SDS011;62994;52.126;5.596;2024-02-26T04:41:10;7.43;;;6.93;;
17564;SDS011;62994;52.126;5.596;2024-02-26T04:43:38;7.05;;;6.45;;
17564;SDS011;62994;52.126;5.596;2024-02-26T04:46:06;6.88;;;6.32;;
17564;SDS011;62994;52.126;5.596;2024-02-26T04:48:34;6.75;;;6.28;;
17564;SDS011;62994;52.126;5.596;2024-02-26T04:51:01;6.57;;;6.18;;
17564;SDS011;62994;52.126;5.596;2024-02-26T04:53:28;6.50;;;6.10;;
17564;SDS011;62994;52.126;5.596;2024-02-26T04:55:57;7.03;;;5.95;;
17564;SDS011;62994;52.126;5.596;2024-02-26T04:58:24;5.95;;;5.60;;
17564;SDS011;62994;52.126;5.596;2024-02-26T05:00:50;6.65;;;6.25;;
17564;SDS011;62994;52.126;5.596;2024-02-26T05:03:18;6.72;;;6.32;;
17564;SDS011;62994;52.126;5.596;2024-02-26T05:05:45;5.97;;;5.57;;
17564;SDS011;62994;52.126;5.596;2024-02-26T05:08:12;6.45;;;6.05;;
17564;SDS011;62994;52.126;5.596;2024-02-26T05:10:39;6.30;;;5.90;;
17564;SDS011;62994;52.126;5.596;2024-02-26T05:13:07;6.43;;;6.03;;
17564;SDS011;62994;52.126;5.596;2024-02-26T05:15:34;6.43;;;5.93;;
17564;SDS011;62994;52.126;5.596;2024-02-26T05:18:01;6.93;;;6.45;;
17564;SDS011;62994;52.126;5.596;2024-02-26T05:20:29;7.43;;;6.70;;
17564;SDS011;62994;52.126;5.596;2024-02-26T05:22:56;7.35;;;6.70;;
17564;SDS011;62994;52.126;5.596;2024-02-26T05:25:24;7.20;;;6.60;;
17564;SDS011;62994;52.126;5.596;2024-02-26T05:27:51;6.30;;;5.90;;
17564;SDS011;62994;52.126;5.596;2024-02-26T05:30:19;7.35;;;6.85;;
17564;SDS011;62994;52.126;5.596;2024-02-26T05:32:46;6.85;;;6.35;;
17564;SDS011;62994;52.126;5.596;2024-02-26T05:35:13;7.32;;;6.82;;
17564;SDS011;62994;52.126;5.596;2024-02-26T05:37:41;7.13;;;6.63;;
17564;SDS011;62994;52.126;5.596;2024-02-26T05:40:08;7.13;;;6.72;;
17564;SDS011;62994;52.126;5.596;2024-02-26T05:42:35;6.88;;;6.38;;
17564;SDS011;62994;52.126;5.596;2024-02-26T05:45:02;6.90;;;6.40;;
17564;SDS011;62994;52.126;5.596;2024-02-26T05:47:33;7.38;;;6.85;;
17564;SDS011;62994;52.126;5.596;2024-02-26T05:49:59;7.78;;;7.22;;
17564;SDS011;62994;52.126;5.596;2024-02-26T05:52:26;7.35;;;6.85;;
17564;SDS011;62994;52.126;5.596;2024-02-26T05:54:54;8.05;;;7.55;;
17564;SDS011;62994;52.126;5.596;2024-02-26T05:57:21;7.25;;;6.75;;
17564;SDS011;62994;52.126;5.596;2024-02-26T05:59:48;7.18;;;6.72;;
17564;SDS011;62994;52.126;5.596;2024-02-26T06:02:15;7.97;;;7.38;;
17564;SDS011;62994;52.126;5.596;2024-02-26T06:04:43;7.95;;;7.30;;
17564;SDS011;62994;52.126;5.596;2024-02-26T06:07:11;7.38;;;6.88;;
17564;SDS011;62994;52.126;5.596;2024-02-26T06:09:38;7.50;;;7.00;;
17564;SDS011;62994;52.126;5.596;2024-02-26T06:12:06;8.15;;;7.45;;
17564;SDS011;62994;52.126;5.596;2024-02-26T06:14:33;8.63;;;7.80;;
17564;SDS011;62994;52.126;5.596;2024-02-26T06:17:01;8.40;;;7.65;;
17564;SDS011;62994;52.126;5.596;2024-02-26T06:19:28;8.50;;;7.80;;
17564;SDS011;62994;52.126;5.596;2024-02-26T06:21:56;9.18;;;8.38;;
17564;SDS011;62994;52.126;5.596;2024-02-26T06:24:23;9.30;;;8.30;;
17564;SDS011;62994;52.126;5.596;2024-02-26T06:26:50;9.35;;;8.55;;
17564;SDS011;62994;52.126;5.596;2024-02-26T06:29:16;9.02;;;8.13;;
17564;SDS011;62994;52.126;5.596;2024-02-26T06:31:43;9.82;;;8.85;;
17564;SDS011;62994;52.126;5.596;2024-02-26T06:34:10;9.20;;;8.40;;
17564;SDS011;62994;52.126;5.596;2024-02-26T06:36:37;11.32;;;9.38;;
17564;SDS011;62994;52.126;5.596;2024-02-26T06:39:06;9.68;;;8.93;;
17564;SDS011;62994;52.126;5.596;2024-02-26T06:41:33;10.38;;;9.38;;
17564;SDS011;62994;52.126;5.596;2024-02-26T06:44:01;13.55;;;9.95;;
17564;SDS011;62994;52.126;5.596;2024-02-26T06:46:28;10.43;;;9.52;;
17564;SDS011;62994;52.126;5.596;2024-02-26T06:48:55;15.30;;;10.50;;
17564;SDS011;62994;52.126;5.596;2024-02-26T06:51:22;11.48;;;10.27;;
17564;SDS011;62994;52.126;5.596;2024-02-26T06:53:49;12.02;;;10.73;;
17564;SDS011;62994;52.126;5.596;2024-02-26T06:56:18;11.55;;;10.02;;
17564;SDS011;62994;52.126;5.596;2024-02-26T06:58:45;12.45;;;10.15;;
17564;SDS011;62994;52.126;5.596;2024-02-26T07:01:11;11.75;;;10.23;;
17564;SDS011;62994;52.126;5.596;2024-02-26T07:03:39;12.93;;;9.93;;
17564;SDS011;62994;52.126;5.596;2024-02-26T07:06:06;12.85;;;10.38;;
17564;SDS011;62994;52.126;5.596;2024-02-26T07:08:35;12.52;;;10.75;;
17564;SDS011;62994;52.126;5.596;2024-02-26T07:11:03;14.88;;;10.50;;
17564;SDS011;62994;52.126;5.596;2024-02-26T07:13:35;15.70;;;11.50;;
17564;SDS011;62994;52.126;5.596;2024-02-26T07:16:02;12.48;;;11.20;;
17564;SDS011;62994;52.126;5.596;2024-02-26T07:18:29;21.92;;;12.02;;
17564;SDS011;62994;52.126;5.596;2024-02-26T07:20:56;15.80;;;11.50;;
17564;SDS011;62994;52.126;5.596;2024-02-26T07:23:23;15.80;;;11.27;;
17564;SDS011;62994;52.126;5.596;2024-02-26T07:25:50;17.20;;;11.82;;
17564;SDS011;62994;52.126;5.596;2024-02-26T07:28:18;17.10;;;12.15;;
17564;SDS011;62994;52.126;5.596;2024-02-26T07:30:46;21.13;;;13.63;;
17564;SDS011;62994;52.126;5.596;2024-02-26T07:33:13;17.50;;;12.70;;
17564;SDS011;62994;52.126;5.596;2024-02-26T07:35:40;17.10;;;13.10;;
17564;SDS011;62994;52.126;5.596;2024-02-26T07:38:07;19.92;;;13.38;;
17564;SDS011;62994;52.126;5.596;2024-02-26T07:40:34;19.10;;;12.88;;
17564;SDS011;62994;52.126;5.596;2024-02-26T07:43:01;20.42;;;13.52;;
17564;SDS011;62994;52.126;5.596;2024-02-26T07:45:28;19.05;;;13.18;;
17564;SDS011;62994;52.126;5.596;2024-02-26T07:47:56;20.58;;;13.35;;
17564;SDS011;62994;52.126;5.596;2024-02-26T07:50:23;21.20;;;14.23;;
17564;SDS011;62994;52.126;5.596;2024-02-26T07:52:50;20.65;;;13.85;;
17564;SDS011;62994;52.126;5.596;2024-02-26T07:55:18;22.85;;;13.80;;
17564;SDS011;62994;52.126;5.596;2024-02-26T07:57:45;22.13;;;15.15;;
17564;SDS011;62994;52.126;5.596;2024-02-26T08:00:12;22.50;;;14.95;;
17564;SDS011;62994;52.126;5.596;2024-02-26T08:02:41;22.90;;;15.20;;
17564;SDS011;62994;52.126;5.596;2024-02-26T08:05:10;21.35;;;14.52;;
17564;SDS011;62994;52.126;5.596;2024-02-26T08:07:37;19.80;;;13.52;;
17564;SDS011;62994;52.126;5.596;2024-02-26T08:10:04;20.50;;;14.30;;
17564;SDS011;62994;52.126;5.596;2024-02-26T08:12:31;20.38;;;13.90;;
17564;SDS011;62994;52.126;5.596;2024-02-26T08:14:58;21.95;;;15.30;;
17564;SDS011;62994;52.126;5.596;2024-02-26T08:17:26;20.17;;;14.25;;
17564;SDS011;62994;52.126;5.596;2024-02-26T08:19:53;17.05;;;13.13;;
17564;SDS011;62994;52.126;5.596;2024-02-26T08:22:21;16.35;;;12.00;;
17564;SDS011;62994;52.126;5.596;2024-02-26T08:24:48;16.55;;;12.52;;
17564;SDS011;62994;52.126;5.596;2024-02-26T08:27:15;16.10;;;12.35;;
17564;SDS011;62994;52.126;5.596;2024-02-26T08:29:42;14.68;;;11.57;;
17564;SDS011;62994;52.126;5.596;2024-02-26T08:32:09;17.52;;;12.27;;
17564;SDS011;62994;52.126;5.596;2024-02-26T08:34:36;17.85;;;12.38;;
17564;SDS011;62994;52.126;5.596;2024-02-26T08:37:03;11.93;;;10.73;;
17564;SDS011;62994;52.126;5.596;2024-02-26T08:39:33;15.15;;;11.15;;
17564;SDS011;62994;52.126;5.596;2024-02-26T08:42:00;11.75;;;10.18;;
17564;SDS011;62994;52.126;5.596;2024-02-26T08:44:27;10.68;;;9.57;;
17564;SDS011;62994;52.126;5.596;2024-02-26T08:46:54;11.00;;;9.25;;
17564;SDS011;62994;52.126;5.596;2024-02-26T08:49:21;11.63;;;10.43;;
17564;SDS011;62994;52.126;5.596;2024-02-26T08:51:48;10.60;;;9.57;;
17564;SDS011;62994;52.126;5.596;2024-02-26T08:54:15;10.40;;;9.30;;
17564;SDS011;62994;52.126;5.596;2024-02-26T08:56:44;9.95;;;9.10;;
17564;SDS011;62994;52.126;5.596;2024-02-26T08:59:11;9.55;;;8.75;;
17564;SDS011;62994;52.126;5.596;2024-02-26T09:01:38;9.02;;;8.32;;
17564;SDS011;62994;52.126;5.596;2024-02-26T09:04:04;9.02;;;8.10;;
17564;SDS011;62994;52.126;5.596;2024-02-26T09:06:32;10.02;;;9.05;;
17564;SDS011;62994;52.126;5.596;2024-02-26T09:08:59;8.63;;;7.55;;
17564;SDS011;62994;52.126;5.596;2024-02-26T09:11:26;9.13;;;8.32;;
17564;SDS011;62994;52.126;5.596;2024-02-26T09:13:54;9.48;;;8.07;;
17564;SDS011;62994;52.126;5.596;2024-02-26T09:16:21;7.93;;;7.43;;
17564;SDS011;62994;52.126;5.596;2024-02-26T09:18:48;8.35;;;7.65;;
17564;SDS011;62994;52.126;5.596;2024-02-26T09:21:15;8.25;;;7.65;;
17564;SDS011;62994;52.126;5.596;2024-02-26T09:23:48;8.30;;;7.65;;
17564;SDS011;62994;52.126;5.596;2024-02-26T09:26:15;13.32;;;6.65;;
17564;SDS011;62994;52.126;5.596;2024-02-26T09:28:43;8.38;;;7.68;;
17564;SDS011;62994;52.126;5.596;2024-02-26T09:31:13;7.35;;;6.85;;
17564;SDS011;62994;52.126;5.596;2024-02-26T09:33:42;8.00;;;7.30;;
17564;SDS011;62994;52.126;5.596;2024-02-26T09:36:09;7.82;;;6.93;;
17564;SDS011;62994;52.126;5.596;2024-02-26T09:38:36;7.50;;;6.85;;
17564;SDS011;62994;52.126;5.596;2024-02-26T09:41:05;7.68;;;7.05;;
17564;SDS011;62994;52.126;5.596;2024-02-26T09:43:33;7.72;;;7.13;;
17564;SDS011;62994;52.126;5.596;2024-02-26T09:46:01;6.85;;;6.25;;
17564;SDS011;62994;52.126;5.596;2024-02-26T09:48:30;6.72;;;6.07;;
17564;SDS011;62994;52.126;5.596;2024-02-26T09:50:59;6.93;;;6.40;;
17564;SDS011;62994;52.126;5.596;2024-02-26T09:53:28;6.63;;;6.07;;
17564;SDS011;62994;52.126;5.596;2024-02-26T09:55:56;6.93;;;6.38;;
17564;SDS011;62994;52.126;5.596;2024-02-26T09:58:24;6.70;;;6.20;;
17564;SDS011;62994;52.126;5.596;2024-02-26T10:00:53;6.20;;;5.80;;
17564;SDS011;62994;52.126;5.596;2024-02-26T10:03:24;6.60;;;6.00;;
17564;SDS011;62994;52.126;5.596;2024-02-26T10:05:56;5.15;;;4.85;;
17564;SDS011;62994;52.126;5.596;2024-02-26T10:08:23;6.78;;;6.28;;
17564;SDS011;62994;52.126;5.596;2024-02-26T10:10:51;6.57;;;6.18;;
17564;SDS011;62994;52.126;5.596;2024-02-26T10:13:19;6.15;;;5.75;;
17564;SDS011;62994;52.126;5.596;2024-02-26T10:15:46;6.07;;;5.68;;
17564;SDS011;62994;52.126;5.596;2024-02-26T10:18:14;6.32;;;5.93;;
17564;SDS011;62994;52.126;5.596;2024-02-26T10:20:41;6.53;;;6.10;;
17564;SDS011;62994;52.126;5.596;2024-02-26T10:23:10;7.47;;;6.78;;
17564;SDS011;62994;52.126;5.596;2024-02-26T10:25:36;6.00;;;5.70;;
17564;SDS011;62994;52.126;5.596;2024-02-26T10:28:04;6.63;;;6.13;;
17564;SDS011;62994;52.126;5.596;2024-02-26T10:30:31;6.97;;;6.47;;
17564;SDS011;62994;52.126;5.596;2024-02-26T10:32:58;6.20;;;5.78;;
17564;SDS011;62994;52.126;5.596;2024-02-26T10:35:26;6.10;;;5.60;;
17564;SDS011;62994;52.126;5.596;2024-02-26T10:37:53;6.18;;;5.78;;
17564;SDS011;62994;52.126;5.596;2024-02-26T10:40:22;6.03;;;5.63;;
17564;SDS011;62994;52.126;5.596;2024-02-26T10:42:49;7.28;;;6.00;;
17564;SDS011;62994;52.126;5.596;2024-02-26T10:45:16;6.00;;;5.40;;
17564;SDS011;62994;52.126;5.596;2024-02-26T10:47:43;5.95;;;5.60;;
17564;SDS011;62994;52.126;5.596;2024-02-26T10:50:12;5.70;;;5.30;;
17564;SDS011;62994;52.126;5.596;2024-02-26T10:52:41;5.95;;;5.50;;
17564;SDS011;62994;52.126;5.596;2024-02-26T10:55:09;5.78;;;5.28;;
17564;SDS011;62994;52.126;5.596;2024-02-26T10:57:44;5.72;;;5.32;;
17564;SDS011;62994;52.126;5.596;2024-02-26T11:00:13;6.15;;;5.68;;
17564;SDS011;62994;52.126;5.596;2024-02-26T11:02:41;5.55;;;5.15;;
17564;SDS011;62994;52.126;5.596;2024-02-26T11:05:10;5.55;;;5.25;;
17564;SDS011;62994;52.126;5.596;2024-02-26T11:07:38;5.90;;;5.50;;
17564;SDS011;62994;52.126;5.596;2024-02-26T11:10:07;5.97;;;5.47;;
17564;SDS011;62994;52.126;5.596;2024-02-26T11:12:37;5.65;;;5.20;;
17564;SDS011;62994;52.126;5.596;2024-02-26T11:15:08;5.72;;;5.43;;
17564;SDS011;62994;52.126;5.596;2024-02-26T11:17:35;7.10;;;5.05;;
17564;SDS011;62994;52.126;5.596;2024-02-26T11:20:04;5.47;;;5.10;;
17564;SDS011;62994;52.126;5.596;2024-02-26T11:22:36;5.30;;;5.00;;
17564;SDS011;62994;52.126;5.596;2024-02-26T11:25:03;5.47;;;5.05;;
17564;SDS011;62994;52.126;5.596;2024-02-26T11:27:32;5.30;;;4.80;;
17564;SDS011;62994;52.126;5.596;2024-02-26T11:30:03;6.47;;;5.18;;
17564;SDS011;62994;52.126;5.596;2024-02-26T11:32:36;5.50;;;5.00;;
17564;SDS011;62994;52.126;5.596;2024-02-26T11:35:04;6.03;;;5.22;;
17564;SDS011;62994;52.126;5.596;2024-02-26T11:37:32;5.50;;;5.20;;
17564;SDS011;62994;52.126;5.596;2024-02-26T11:39:59;7.78;;;5.22;;
17564;SDS011;62994;52.126;5.596;2024-02-26T11:42:26;5.80;;;5.30;;
17564;SDS011;62994;52.126;5.596;2024-02-26T11:44:55;5.32;;;4.93;;
17564;SDS011;62994;52.126;5.596;2024-02-26T11:47:27;5.95;;;5.55;;
17564;SDS011;62994;52.126;5.596;2024-02-26T11:49:55;5.38;;;4.97;;
17564;SDS011;62994;52.126;5.596;2024-02-26T11:52:22;5.70;;;5.40;;
17564;SDS011;62994;52.126;5.596;2024-02-26T11:54:49;5.65;;;5.25;;
17564;SDS011;62994;52.126;5.596;2024-02-26T11:57:21;5.38;;;4.97;;
17564;SDS011;62994;52.126;5.596;2024-02-26T11:59:52;6.18;;;5.78;;
17564;SDS011;62994;52.126;5.596;2024-02-26T12:02:43;6.13;;;5.72;;
17564;SDS011;62994;52.126;5.596;2024-02-26T12:05:13;5.68;;;5.28;;
17564;SDS011;62994;52.126;5.596;2024-02-26T12:07:42;5.45;;;5.10;;
17564;SDS011;62994;52.126;5.596;2024-02-26T12:10:22;6.43;;;5.18;;
17564;SDS011;62994;52.126;5.596;2024-02-26T12:13:02;6.40;;;6.00;;
17564;SDS011;62994;52.126;5.596;2024-02-26T12:15:31;5.35;;;4.95;;
17564;SDS011;62994;52.126;5.596;2024-02-26T12:18:00;5.88;;;5.47;;
17564;SDS011;62994;52.126;5.596;2024-02-26T12:20:29;5.50;;;5.20;;
17564;SDS011;62994;52.126;5.596;2024-02-26T12:22:57;5.55;;;5.05;;
17564;SDS011;62994;52.126;5.596;2024-02-26T12:25:25;5.65;;;5.25;;
17564;SDS011;62994;52.126;5.596;2024-02-26T12:27:53;7.60;;;5.53;;
17564;SDS011;62994;52.126;5.596;2024-02-26T12:30:20;6.00;;;5.60;;
17564;SDS011;62994;52.126;5.596;2024-02-26T12:32:48;5.72;;;5.30;;
17564;SDS011;62994;52.126;5.596;2024-02-26T12:35:16;5.22;;;4.93;;
17564;SDS011;62994;52.126;5.596;2024-02-26T12:37:44;6.20;;;5.78;;
17564;SDS011;62994;52.126;5.596;2024-02-26T12:40:12;5.38;;;5.07;;
17564;SDS011;62994;52.126;5.596;2024-02-26T12:42:40;5.63;;;5.22;;
17564;SDS011;62994;52.126;5.596;2024-02-26T12:45:08;6.00;;;5.60;;
17564;SDS011;62994;52.126;5.596;2024-02-26T12:47:36;6.05;;;5.65;;
17564;SDS011;62994;52.126;5.596;2024-02-26T12:50:04;5.93;;;5.53;;
17564;SDS011;62994;52.126;5.596;2024-02-26T12:52:32;5.60;;;5.30;;
17564;SDS011;62994;52.126;5.596;2024-02-26T12:55:01;5.28;;;4.97;;
17564;SDS011;62994;52.126;5.596;2024-02-26T12:57:33;5.30;;;5.00;;
17564;SDS011;62994;52.126;5.596;2024-02-26T13:00:02;5.60;;;5.30;;
17564;SDS011;62994;52.126;5.596;2024-02-26T13:02:31;6.85;;;6.35;;
17564;SDS011;62994;52.126;5.596;2024-02-26T13:04:59;5.60;;;5.30;;
17564;SDS011;62994;52.126;5.596;2024-02-26T13:07:26;5.47;;;5.07;;
17564;SDS011;62994;52.126;5.596;2024-02-26T13:09:54;5.53;;;5.22;;
17564;SDS011;62994;52.126;5.596;2024-02-26T13:12:23;5.82;;;5.43;;
17564;SDS011;62994;52.126;5.596;2024-02-26T13:14:58;5.78;;;5.22;;
17564;SDS011;62994;52.126;5.596;2024-02-26T13:17:25;5.80;;;5.43;;
17564;SDS011;62994;52.126;5.596;2024-02-26T13:19:53;5.78;;;5.47;;
17564;SDS011;62994;52.126;5.596;2024-02-26T13:22:20;5.60;;;5.22;;
17564;SDS011;62994;52.126;5.596;2024-02-26T13:24:58;5.38;;;5.03;;
17564;SDS011;62994;52.126;5.596;2024-02-26T13:27:40;5.35;;;5.00;;
17564;SDS011;62994;52.126;5.596;2024-02-26T13:30:08;5.57;;;5.18;;
17564;SDS011;62994;52.126;5.596;2024-02-26T13:32:36;5.47;;;5.18;;
17564;SDS011;62994;52.126;5.596;2024-02-26T13:35:05;5.15;;;4.85;;
17564;SDS011;62994;52.126;5.596;2024-02-26T13:37:31;5.95;;;5.55;;
17564;SDS011;62994;52.126;5.596;2024-02-26T13:39:58;5.53;;;5.07;;
17564;SDS011;62994;52.126;5.596;2024-02-26T13:42:29;5.15;;;4.85;;
17564;SDS011;62994;52.126;5.596;2024-02-26T13:44:58;5.45;;;5.10;;
17564;SDS011;62994;52.126;5.596;2024-02-26T13:47:24;5.22;;;4.93;;
17564;SDS011;62994;52.126;5.596;2024-02-26T13:49:52;5.30;;;5.00;;
17564;SDS011;62994;52.126;5.596;2024-02-26T13:52:19;6.40;;;5.55;;
17564;SDS011;62994;52.126;5.596;2024-02-26T13:54:46;5.53;;;5.13;;
17564;SDS011;62994;52.126;5.596;2024-02-26T13:57:13;5.78;;;5.47;;
17564;SDS011;62994;52.126;5.596;2024-02-26T13:59:40;4.68;;;4.47;;
17564;SDS011;62994;52.126;5.596;2024-02-26T14:02:09;5.32;;;5.03;;
17564;SDS011;62994;52.126;5.596;2024-02-26T14:04:36;5.07;;;4.78;;
17564;SDS011;62994;52.126;5.596;2024-02-26T14:07:03;5.40;;;5.00;;
17564;SDS011;62994;52.126;5.596;2024-02-26T14:09:30;5.03;;;4.72;;
17564;SDS011;62994;52.126;5.596;2024-02-26T14:11:57;6.28;;;5.35;;
17564;SDS011;62994;52.126;5.596;2024-02-26T14:14:24;5.05;;;4.75;;
17564;SDS011;62994;52.126;5.596;2024-02-26T14:16:51;4.93;;;4.53;;
17564;SDS011;62994;52.126;5.596;2024-02-26T14:19:20;5.30;;;5.00;;
17564;SDS011;62994;52.126;5.596;2024-02-26T14:21:46;5.00;;;4.63;;
17564;SDS011;62994;52.126;5.596;2024-02-26T14:24:14;5.22;;;4.93;;
17564;SDS011;62994;52.126;5.596;2024-02-26T14:26:42;4.68;;;4.28;;
17564;SDS011;62994;52.126;5.596;2024-02-26T14:29:09;4.95;;;4.32;;
17564;SDS011;62994;52.126;5.596;2024-02-26T14:31:36;5.00;;;4.50;;
17564;SDS011;62994;52.126;5.596;2024-02-26T14:34:02;4.60;;;4.32;;
17564;SDS011;62994;52.126;5.596;2024-02-26T14:36:31;4.53;;;4.13;;
17564;SDS011;62994;52.126;5.596;2024-02-26T14:38:58;4.30;;;4.00;;
17564;SDS011;62994;52.126;5.596;2024-02-26T14:41:24;4.07;;;3.88;;
17564;SDS011;62994;52.126;5.596;2024-02-26T14:43:51;4.25;;;4.05;;
17564;SDS011;62994;52.126;5.596;2024-02-26T14:46:18;4.18;;;3.97;;